createdAt,value
2023-08-09T00:00:23.465Z,3.35
2023-08-09T00:02:51.338Z,3.08
2023-08-09T00:05:19.881Z,3.88
2023-08-09T00:07:49.032Z,3.88
2023-08-09T00:10:16.884Z,3.47
2023-08-09T00:12:44.743Z,15.80
2023-08-09T00:15:12.695Z,5.72
2023-08-09T00:17:40.540Z,40.47
2023-08-09T00:20:09.482Z,21.63
2023-08-09T00:22:37.387Z,6.07
2023-08-09T00:25:07.768Z,4.35
2023-08-09T00:27:35.608Z,3.55
2023-08-09T00:30:03.461Z,3.67
2023-08-09T00:32:33.179Z,3.50
2023-08-09T00:35:01.609Z,3.50
2023-08-09T00:37:29.453Z,3.30
2023-08-09T00:39:57.711Z,3.00
2023-08-09T00:42:28.201Z,3.45
2023-08-09T00:44:56.045Z,3.13
2023-08-09T00:47:23.882Z,2.88
2023-08-09T00:49:53.854Z,3.17
2023-08-09T00:52:22.182Z,3.30
2023-08-09T00:54:50.610Z,3.17
2023-08-09T00:57:18.457Z,3.30
2023-08-09T00:59:47.751Z,2.45
2023-08-09T01:02:15.764Z,2.58
2023-08-09T01:04:44.899Z,3.30
2023-08-09T01:07:18.972Z,3.50
2023-08-09T01:09:52.921Z,3.67
2023-08-09T01:12:27.274Z,2.80
2023-08-09T01:15:00.638Z,3.45
2023-08-09T01:17:30.111Z,3.10
2023-08-09T01:20:00.004Z,3.67
2023-08-09T01:22:30.516Z,3.60
2023-08-09T01:25:04.311Z,3.25
2023-08-09T01:27:32.530Z,4.00
2023-08-09T01:30:01.455Z,3.83
2023-08-09T01:32:31.371Z,3.92
2023-08-09T01:35:01.088Z,3.50
2023-08-09T01:37:35.198Z,4.45
2023-08-09T01:40:09.357Z,3.28
2023-08-09T01:42:38.206Z,3.75
2023-08-09T01:45:07.736Z,3.88
2023-08-09T01:47:36.625Z,3.17
2023-08-09T01:50:05.888Z,3.08
2023-08-09T01:52:34.349Z,2.70
2023-08-09T01:55:02.180Z,3.70
2023-08-09T01:57:31.390Z,4.05
2023-08-09T02:00:00.243Z,3.45
2023-08-09T02:02:28.325Z,3.42
2023-08-09T02:04:56.905Z,3.35
2023-08-09T02:07:24.762Z,3.10
2023-08-09T02:09:52.593Z,3.75
2023-08-09T02:12:20.508Z,3.55
2023-08-09T02:14:49.632Z,3.65
2023-08-09T02:17:17.506Z,3.92
2023-08-09T02:19:45.424Z,3.83
2023-08-09T02:22:13.231Z,2.97
2023-08-09T02:24:41.072Z,3.80
2023-08-09T02:27:09.513Z,2.95
2023-08-09T02:29:37.514Z,3.40
2023-08-09T02:32:07.794Z,3.50
2023-08-09T02:34:35.656Z,5.00
2023-08-09T02:37:03.764Z,4.85
2023-08-09T02:39:33.094Z,4.65
2023-08-09T02:42:01.569Z,4.57
2023-08-09T02:44:30.808Z,5.20
2023-08-09T02:46:58.791Z,4.55
2023-08-09T02:49:28.024Z,4.90
2023-08-09T02:51:55.841Z,4.38
2023-08-09T02:54:24.087Z,5.65
2023-08-09T02:56:51.888Z,5.03
2023-08-09T02:59:19.761Z,4.60
2023-08-09T03:01:47.704Z,5.22
2023-08-09T03:04:15.849Z,5.68
2023-08-09T03:06:45.053Z,5.95
2023-08-09T03:09:13.067Z,6.40
2023-08-09T03:11:40.911Z,6.03
2023-08-09T03:14:08.809Z,5.47
2023-08-09T03:16:36.771Z,5.43
2023-08-09T03:19:05.002Z,5.35
2023-08-09T03:21:33.295Z,5.57
2023-08-09T03:24:02.744Z,5.70
2023-08-09T03:26:31.055Z,5.20
2023-08-09T03:29:01.637Z,5.30
2023-08-09T03:31:29.544Z,5.25
2023-08-09T03:34:00.256Z,4.57
2023-08-09T03:36:28.167Z,5.00
2023-08-09T03:38:56.051Z,4.93
2023-08-09T03:41:26.268Z,5.57
2023-08-09T03:43:54.156Z,5.75
2023-08-09T03:46:22.040Z,4.60
2023-08-09T03:48:50.051Z,6.03
2023-08-09T03:51:18.642Z,5.13
2023-08-09T03:53:48.039Z,5.30
2023-08-09T03:56:15.879Z,5.03
2023-08-09T03:58:45.112Z,4.70
2023-08-09T04:01:13.748Z,4.78
2023-08-09T04:03:41.901Z,4.68
2023-08-09T04:06:10.412Z,5.38
2023-08-09T04:08:38.324Z,4.13
2023-08-09T04:11:06.368Z,5.63
2023-08-09T04:13:34.407Z,5.57
2023-08-09T04:16:03.583Z,4.88
2023-08-09T04:18:31.508Z,4.40
2023-08-09T04:20:59.313Z,4.28
2023-08-09T04:23:27.136Z,4.68
2023-08-09T04:25:55.650Z,4.20
2023-08-09T04:28:23.586Z,4.10
2023-08-09T04:30:51.504Z,4.28
2023-08-09T04:33:20.685Z,4.32
2023-08-09T04:35:48.561Z,3.83
2023-08-09T04:38:16.460Z,4.25
2023-08-09T04:40:44.355Z,4.03
2023-08-09T04:43:12.411Z,4.28
2023-08-09T04:45:40.368Z,4.40
2023-08-09T04:48:08.589Z,3.90
2023-08-09T04:50:37.825Z,4.03
2023-08-09T04:53:05.627Z,4.20
2023-08-09T04:55:33.457Z,3.38
2023-08-09T04:58:01.269Z,2.90
2023-08-09T05:00:29.900Z,3.72
2023-08-09T05:02:57.825Z,3.10
2023-08-09T05:05:25.724Z,3.58
2023-08-09T05:07:54.899Z,2.95
2023-08-09T05:10:22.706Z,2.85
2023-08-09T05:12:50.599Z,3.22
2023-08-09T05:15:18.580Z,2.33
2023-08-09T05:17:46.416Z,3.97
2023-08-09T05:20:14.656Z,3.42
2023-08-09T05:22:42.529Z,3.92
2023-08-09T05:25:12.270Z,4.53
2023-08-09T05:27:40.341Z,4.25
2023-08-09T05:30:09.630Z,4.20
2023-08-09T05:32:37.483Z,2.90
2023-08-09T05:35:06.250Z,3.42
2023-08-09T05:37:34.172Z,2.70
2023-08-09T05:40:02.012Z,3.10
2023-08-09T05:42:31.210Z,3.05
2023-08-09T05:45:00.384Z,2.47
2023-08-09T05:47:28.383Z,3.47
2023-08-09T05:49:56.465Z,2.92
2023-08-09T05:52:24.396Z,2.38
2023-08-09T05:54:52.263Z,2.70
2023-08-09T05:57:20.121Z,2.50
2023-08-09T05:59:49.282Z,3.03
2023-08-09T06:02:17.209Z,2.67
2023-08-09T06:04:45.414Z,2.40
2023-08-09T06:07:14.681Z,2.53
2023-08-09T06:09:42.569Z,2.92
2023-08-09T06:12:10.392Z,2.70
2023-08-09T06:14:38.250Z,2.63
2023-08-09T06:17:07.573Z,2.78
2023-08-09T06:19:35.628Z,3.08
2023-08-09T06:22:03.479Z,2.75
2023-08-09T06:24:31.285Z,3.08
2023-08-09T06:26:59.142Z,2.80
2023-08-09T06:29:27.125Z,2.83
2023-08-09T06:31:54.995Z,3.47
2023-08-09T06:34:24.135Z,2.35
2023-08-09T06:36:52.000Z,2.50
2023-08-09T06:39:20.419Z,2.63
2023-08-09T06:41:48.283Z,2.13
2023-08-09T06:44:17.395Z,2.53
2023-08-09T06:46:45.474Z,2.30
2023-08-09T06:49:13.783Z,2.22
2023-08-09T06:51:43.686Z,2.42
2023-08-09T06:54:11.542Z,2.40
2023-08-09T06:56:41.608Z,1.75
2023-08-09T06:59:09.468Z,2.65
2023-08-09T07:01:37.772Z,2.10
2023-08-09T07:04:06.216Z,2.20
2023-08-09T07:06:34.047Z,1.67
2023-08-09T07:09:03.756Z,2.10
2023-08-09T07:11:31.665Z,2.17
2023-08-09T07:13:59.557Z,2.30
2023-08-09T07:16:27.564Z,1.92
2023-08-09T07:18:57.715Z,2.00
2023-08-09T07:21:29.087Z,1.60
2023-08-09T07:23:58.509Z,1.65
2023-08-09T07:26:28.498Z,1.63
2023-08-09T07:28:56.345Z,1.50
2023-08-09T07:31:26.232Z,2.03
2023-08-09T07:33:54.364Z,2.10
2023-08-09T07:36:22.260Z,1.90
2023-08-09T07:38:50.168Z,1.70
2023-08-09T07:41:17.996Z,2.03
2023-08-09T07:43:47.203Z,1.42
2023-08-09T07:46:15.156Z,1.75
2023-08-09T07:48:43.080Z,1.60
2023-08-09T07:51:13.326Z,1.50
2023-08-09T07:53:43.236Z,1.35
2023-08-09T07:56:12.620Z,1.40
2023-08-09T07:58:40.523Z,1.30
2023-08-09T08:01:09.747Z,1.30
2023-08-09T08:03:37.704Z,1.65
2023-08-09T08:06:06.195Z,1.50
2023-08-09T08:08:34.149Z,1.50
2023-08-09T08:11:02.154Z,1.95
2023-08-09T08:13:30.309Z,1.70
2023-08-09T08:15:58.216Z,1.67
2023-08-09T08:18:28.364Z,1.60
2023-08-09T08:20:56.610Z,1.25
2023-08-09T08:23:24.430Z,1.63
2023-08-09T08:25:52.316Z,1.30
2023-08-09T08:28:20.202Z,1.58
2023-08-09T08:30:48.858Z,1.50
2023-08-09T08:33:18.428Z,1.10
2023-08-09T08:35:55.671Z,1.23
2023-08-09T08:38:27.841Z,1.30
2023-08-09T08:40:56.560Z,1.55
2023-08-09T08:43:25.100Z,1.15
2023-08-09T08:45:54.516Z,1.25
2023-08-09T08:48:22.493Z,1.40
2023-08-09T08:50:52.521Z,1.55
2023-08-09T08:53:21.468Z,1.40
2023-08-09T08:55:49.570Z,1.20
2023-08-09T08:58:17.764Z,0.85
2023-08-09T09:00:45.607Z,1.20
2023-08-09T09:03:13.573Z,1.17
2023-08-09T09:05:41.489Z,1.20
2023-08-09T09:08:14.317Z,1.02
2023-08-09T09:10:46.124Z,1.10
2023-08-09T09:13:25.604Z,1.13
2023-08-09T09:15:55.577Z,1.02
2023-08-09T09:18:24.387Z,1.10
2023-08-09T09:20:52.820Z,0.80
2023-08-09T09:23:29.610Z,1.02
2023-08-09T09:26:05.314Z,0.98
2023-08-09T09:28:39.756Z,0.90
2023-08-09T09:31:08.132Z,1.30
2023-08-09T09:33:36.939Z,1.02
2023-08-09T09:36:06.361Z,0.68
2023-08-09T09:38:35.763Z,0.90
2023-08-09T09:41:03.687Z,0.80
2023-08-09T09:43:39.662Z,1.40
2023-08-09T09:46:29.896Z,1.20
2023-08-09T09:49:06.400Z,0.80
2023-08-09T09:51:37.189Z,0.98
2023-08-09T09:54:07.794Z,0.70
2023-08-09T09:56:37.157Z,0.88
2023-08-09T09:59:05.640Z,0.70
2023-08-09T10:01:34.623Z,0.70
2023-08-09T10:04:08.879Z,0.90
2023-08-09T10:06:40.757Z,0.80
2023-08-09T10:09:11.084Z,0.70
2023-08-09T10:11:39.212Z,0.75
2023-08-09T10:14:10.162Z,0.70
2023-08-09T10:16:40.229Z,0.68
2023-08-09T10:19:12.998Z,0.63
2023-08-09T10:21:42.508Z,0.60
2023-08-09T10:24:14.313Z,0.60
2023-08-09T10:26:45.718Z,0.60
2023-08-09T10:29:16.588Z,0.80
2023-08-09T10:31:51.233Z,0.80
2023-08-09T10:34:20.241Z,0.77
2023-08-09T10:36:54.323Z,0.85
2023-08-09T10:39:25.455Z,0.70
2023-08-09T10:41:58.089Z,0.70
2023-08-09T10:47:06.360Z,0.63
2023-08-09T10:49:36.004Z,0.75
2023-08-09T10:52:17.464Z,0.73
2023-08-09T10:57:17.297Z,0.50
2023-08-09T10:59:47.481Z,0.68
2023-08-09T11:02:18.131Z,0.60
2023-08-09T11:04:46.379Z,0.57
2023-08-09T11:07:21.489Z,0.80
2023-08-09T11:09:50.683Z,0.57
2023-08-09T11:12:18.564Z,0.50
2023-08-09T11:14:46.928Z,0.70
2023-08-09T11:17:15.095Z,0.60
2023-08-09T11:19:43.010Z,0.70
2023-08-09T11:22:12.305Z,0.73
2023-08-09T11:24:40.163Z,0.40
2023-08-09T11:27:09.615Z,0.60
2023-08-09T11:29:39.520Z,0.60
2023-08-09T11:32:07.919Z,0.55
2023-08-09T11:34:35.758Z,1.00
2023-08-09T11:37:03.961Z,0.80
2023-08-09T11:39:31.818Z,0.68
2023-08-09T11:41:59.708Z,0.77
2023-08-09T11:44:31.777Z,0.90
2023-08-09T11:47:02.130Z,0.70
2023-08-09T11:49:31.267Z,0.57
2023-08-09T11:52:01.506Z,0.70
2023-08-09T11:54:30.473Z,0.43
2023-08-09T11:56:59.692Z,0.77
2023-08-09T11:59:29.344Z,0.50
2023-08-09T12:01:58.833Z,0.68
2023-08-09T12:04:30.611Z,0.65
2023-08-09T12:07:00.530Z,0.60
2023-08-09T12:09:33.160Z,0.70
2023-08-09T12:12:07.336Z,0.55
2023-08-09T12:14:37.804Z,0.85
2023-08-09T12:17:06.220Z,0.80
2023-08-09T12:19:34.796Z,0.75
2023-08-09T12:22:05.040Z,0.60
2023-08-09T12:24:33.224Z,0.50
2023-08-09T12:27:01.498Z,0.75
2023-08-09T12:29:29.323Z,0.70
2023-08-09T12:32:00.540Z,0.65
2023-08-09T12:34:29.329Z,0.60
2023-08-09T12:36:57.374Z,0.60
2023-08-09T12:39:25.380Z,0.60
2023-08-09T12:41:54.011Z,0.57
2023-08-09T12:44:21.875Z,0.50
2023-08-09T12:46:50.138Z,0.52
2023-08-09T12:49:19.388Z,0.68
2023-08-09T12:51:47.551Z,0.80
2023-08-09T12:54:15.521Z,0.80
2023-08-09T12:56:43.446Z,0.60
2023-08-09T12:59:11.374Z,0.70
2023-08-09T13:01:39.330Z,0.50
2023-08-09T13:04:08.093Z,0.82
2023-08-09T13:06:37.296Z,0.50
2023-08-09T13:09:10.282Z,0.70
2023-08-09T13:11:38.387Z,0.80
2023-08-09T13:14:06.535Z,0.50
2023-08-09T13:16:34.640Z,0.63
2023-08-09T13:19:02.565Z,0.77
2023-08-09T13:21:30.481Z,0.57
2023-08-09T13:23:59.685Z,0.73
2023-08-09T13:26:27.607Z,0.55
2023-08-09T13:28:55.477Z,0.73
2023-08-09T13:31:23.648Z,0.80
2023-08-09T13:33:51.537Z,0.70
2023-08-09T13:36:19.407Z,0.77
2023-08-09T13:38:47.348Z,0.80
2023-08-09T13:41:16.610Z,0.70
2023-08-09T13:43:44.692Z,0.75
2023-08-09T13:46:12.609Z,0.60
2023-08-09T13:48:40.520Z,0.75
2023-08-09T13:51:08.363Z,0.75
2023-08-09T13:53:36.283Z,0.73
2023-08-09T13:56:04.213Z,0.60
2023-08-09T13:58:33.438Z,0.80
2023-08-09T14:01:01.301Z,0.93
2023-08-09T14:03:30.074Z,0.82
2023-08-09T14:05:58.020Z,0.75
2023-08-09T14:08:25.873Z,0.80
2023-08-09T14:10:53.677Z,0.75
2023-08-09T14:13:21.793Z,0.73
2023-08-09T14:15:52.556Z,0.80
2023-08-09T14:18:22.721Z,0.75
2023-08-09T14:20:50.719Z,1.08
2023-08-09T14:23:18.864Z,0.80
2023-08-09T14:25:46.701Z,0.77
2023-08-09T14:28:14.647Z,0.80
2023-08-09T14:30:42.522Z,1.00
2023-08-09T14:33:13.348Z,1.00
2023-08-09T14:35:41.391Z,0.77
2023-08-09T14:38:09.386Z,0.90
2023-08-09T14:40:37.303Z,0.70
2023-08-09T14:43:05.579Z,0.80
2023-08-09T14:45:33.615Z,0.90
2023-08-09T14:48:01.619Z,0.80
2023-08-09T14:50:30.866Z,0.70
2023-08-09T14:52:58.747Z,1.10
2023-08-09T14:55:26.694Z,1.00
2023-08-09T14:57:54.559Z,0.80
2023-08-09T15:00:22.827Z,0.90
2023-08-09T15:02:51.095Z,0.90
2023-08-09T15:05:19.102Z,0.95
2023-08-09T15:07:48.403Z,0.80
2023-08-09T15:10:16.319Z,1.10
2023-08-09T15:12:44.191Z,0.95
2023-08-09T15:15:12.456Z,0.80
2023-08-09T15:17:40.456Z,1.13
2023-08-09T15:20:12.282Z,0.88
2023-08-09T15:22:40.396Z,0.85
2023-08-09T15:25:20.023Z,0.90
2023-08-09T15:27:48.481Z,1.05
2023-08-09T15:30:17.404Z,0.90
2023-08-09T15:32:46.076Z,0.80
2023-08-09T15:35:14.479Z,1.00
2023-08-09T15:37:42.930Z,0.70
2023-08-09T15:40:13.282Z,1.00
2023-08-09T15:42:42.886Z,0.85
2023-08-09T15:45:11.682Z,1.00
2023-08-09T15:47:39.890Z,0.85
2023-08-09T15:50:09.179Z,0.80
2023-08-09T15:52:37.027Z,0.85
2023-08-09T15:55:05.375Z,0.90
2023-08-09T15:57:33.278Z,1.92
2023-08-09T16:00:03.822Z,1.10
2023-08-09T16:02:34.403Z,12.75
2023-08-09T16:05:02.396Z,7.32
2023-08-09T16:07:30.218Z,1.20
2023-08-09T16:09:58.075Z,3.55
2023-08-09T16:12:25.879Z,1.17
2023-08-09T16:14:53.773Z,0.90
2023-08-09T16:17:23.732Z,1.08
2023-08-09T16:19:52.452Z,0.80
2023-08-09T16:22:24.456Z,0.90
2023-08-09T16:24:52.360Z,1.00
2023-08-09T16:27:20.203Z,0.93
2023-08-09T16:29:48.073Z,0.98
2023-08-09T16:32:15.974Z,1.20
2023-08-09T16:34:45.360Z,1.15
2023-08-09T16:37:13.188Z,1.10
2023-08-09T16:39:41.042Z,1.05
2023-08-09T16:42:09.046Z,1.00
2023-08-09T16:44:36.877Z,0.93
2023-08-09T16:47:05.087Z,1.10
2023-08-09T16:49:33.213Z,1.05
2023-08-09T16:52:02.834Z,0.85
2023-08-09T16:54:30.694Z,0.82
2023-08-09T16:56:58.559Z,0.90
2023-08-09T16:59:26.364Z,1.20
2023-08-09T17:01:54.266Z,1.17
2023-08-09T17:04:22.096Z,1.00
2023-08-09T17:06:50.307Z,0.98
2023-08-09T17:09:19.525Z,1.15
2023-08-09T17:11:47.367Z,1.10
2023-08-09T17:14:15.244Z,1.20
2023-08-09T17:16:43.152Z,0.98
2023-08-09T17:19:11.104Z,1.10
2023-08-09T17:21:39.008Z,1.00
2023-08-09T17:24:07.689Z,1.10
2023-08-09T17:26:36.912Z,1.15
2023-08-09T17:29:04.856Z,1.00
2023-08-09T17:31:32.731Z,1.20
2023-08-09T17:34:00.675Z,1.67
2023-08-09T17:36:28.557Z,1.10
2023-08-09T17:38:56.382Z,1.35
2023-08-09T17:41:24.388Z,1.17
2023-08-09T17:43:53.567Z,1.08
2023-08-09T17:46:23.186Z,0.95
2023-08-09T17:48:53.062Z,1.40
2023-08-09T17:51:21.885Z,0.98
2023-08-09T17:53:49.817Z,1.17
2023-08-09T17:56:17.805Z,1.10
2023-08-09T17:58:45.699Z,1.27
2023-08-09T18:01:14.944Z,1.20
2023-08-09T18:03:42.812Z,1.30
2023-08-09T18:06:10.728Z,1.30
2023-08-09T18:08:38.586Z,1.10
2023-08-09T18:11:06.573Z,1.20
2023-08-09T18:13:34.366Z,1.50
2023-08-09T18:16:02.329Z,1.42
2023-08-09T18:18:31.497Z,1.33
2023-08-09T18:20:59.403Z,1.30
2023-08-09T18:23:27.471Z,1.25
2023-08-09T18:25:55.336Z,1.20
2023-08-09T18:28:23.226Z,1.50
2023-08-09T18:30:51.219Z,1.27
2023-08-09T18:33:19.062Z,1.30
2023-08-09T18:35:48.263Z,1.30
2023-08-09T18:38:16.120Z,1.58
2023-08-09T18:40:43.980Z,1.48
2023-08-09T18:43:12.278Z,1.23
2023-08-09T18:45:40.166Z,1.40
2023-08-09T18:48:09.064Z,1.25
2023-08-09T18:50:36.950Z,1.30
2023-08-09T18:53:06.230Z,1.40
2023-08-09T18:55:34.487Z,1.45
2023-08-09T18:58:02.323Z,1.40
2023-08-09T19:00:32.175Z,1.40
2023-08-09T19:03:00.051Z,1.40
2023-08-09T19:05:27.937Z,2.85
2023-08-09T19:07:55.894Z,6.88
2023-08-09T19:10:25.112Z,4.40
2023-08-09T19:12:53.174Z,2.25
2023-08-09T19:15:22.110Z,1.60
2023-08-09T19:17:50.113Z,1.40
2023-08-09T19:20:18.364Z,1.38
2023-08-09T19:22:46.208Z,1.20
2023-08-09T19:25:16.317Z,1.60
2023-08-09T19:27:45.588Z,1.73
2023-08-09T19:30:14.814Z,1.75
2023-08-09T19:32:42.839Z,1.70
2023-08-09T19:35:11.279Z,1.48
2023-08-09T19:37:39.149Z,1.50
2023-08-09T19:40:08.729Z,1.70
2023-08-09T19:42:37.695Z,1.30
2023-08-09T19:45:09.655Z,1.60
2023-08-09T19:47:37.579Z,1.60
2023-08-09T19:50:06.270Z,1.50
2023-08-09T19:52:34.693Z,1.55
2023-08-09T19:55:02.568Z,1.90
2023-08-09T19:57:30.448Z,2.00
2023-08-09T19:59:58.620Z,1.67
2023-08-09T20:02:28.160Z,2.08
2023-08-09T20:04:56.165Z,2.10
2023-08-09T20:07:24.019Z,1.73
2023-08-09T20:09:51.858Z,1.90
2023-08-09T20:12:19.676Z,2.15
2023-08-09T20:14:47.539Z,2.00
2023-08-09T20:17:15.499Z,2.80
2023-08-09T20:19:44.726Z,2.03
2023-08-09T20:22:12.564Z,2.03
2023-08-09T20:24:42.472Z,1.55
2023-08-09T20:27:11.553Z,1.80
2023-08-09T20:29:40.055Z,1.80
2023-08-09T20:32:08.346Z,2.08
2023-08-09T20:34:36.915Z,2.17
2023-08-09T20:37:06.372Z,1.98
2023-08-09T20:39:34.453Z,1.90
2023-08-09T20:42:02.348Z,2.00
2023-08-09T20:44:36.061Z,2.15
2023-08-09T20:47:04.629Z,1.85
2023-08-09T20:49:32.883Z,1.90
2023-08-09T20:52:03.437Z,2.50
2023-08-09T20:54:32.799Z,2.47
2023-08-09T20:57:01.073Z,2.08
2023-08-09T20:59:31.781Z,2.00
2023-08-09T21:01:59.727Z,1.90
2023-08-09T21:04:27.723Z,2.10
2023-08-09T21:06:55.578Z,2.00
2023-08-09T21:09:23.743Z,2.10
2023-08-09T21:11:52.971Z,1.85
2023-08-09T21:14:21.433Z,1.95
2023-08-09T21:16:49.216Z,2.03
2023-08-09T21:19:18.168Z,1.92
2023-08-09T21:21:46.066Z,2.33
2023-08-09T21:26:50.616Z,2.83
2023-08-09T21:29:22.294Z,2.17
2023-08-09T21:31:50.569Z,2.40
2023-08-09T21:34:18.627Z,2.15
2023-08-09T21:36:46.772Z,2.20
2023-08-09T21:39:14.744Z,1.60
2023-08-09T21:41:42.671Z,2.35
2023-08-09T21:44:11.084Z,1.90
2023-08-09T21:46:40.353Z,2.00
2023-08-09T21:49:08.271Z,1.90
2023-08-09T21:51:36.138Z,2.10
2023-08-09T21:54:04.133Z,2.00
2023-08-09T21:56:31.997Z,2.10
2023-08-09T21:58:59.860Z,2.08
2023-08-09T22:01:28.931Z,2.10
2023-08-09T22:06:36.650Z,1.90
2023-08-09T22:09:06.302Z,1.80
2023-08-09T22:11:34.311Z,1.60
2023-08-09T22:14:02.154Z,2.15
2023-08-09T22:16:30.109Z,2.13
2023-08-09T22:18:57.971Z,2.10
2023-08-09T22:21:25.876Z,1.95
2023-08-09T22:23:55.023Z,2.38
2023-08-09T22:26:22.982Z,2.03
2023-08-09T22:28:50.886Z,2.05
2023-08-09T22:31:18.792Z,1.90
2023-08-09T22:33:46.664Z,2.08
2023-08-09T22:36:14.638Z,2.08
2023-08-09T22:41:11.696Z,1.73
2023-08-09T22:43:39.519Z,1.67
2023-08-09T22:46:07.472Z,2.15
2023-08-09T22:48:35.378Z,1.60
2023-08-09T22:51:03.455Z,2.33
2023-08-09T22:53:31.314Z,1.83
2023-08-09T22:55:59.972Z,1.85
2023-08-09T22:58:29.198Z,2.10
2023-08-09T23:00:57.064Z,2.42
2023-08-09T23:03:25.036Z,1.90
2023-08-09T23:05:52.971Z,2.13
2023-08-09T23:08:20.876Z,2.50
2023-08-09T23:10:48.825Z,2.10
2023-08-09T23:13:16.679Z,2.30
2023-08-09T23:15:46.285Z,2.30
2023-08-09T23:18:14.623Z,2.10
2023-08-09T23:20:42.652Z,2.10
2023-08-09T23:23:11.484Z,2.28
2023-08-09T23:25:39.335Z,2.40
2023-08-09T23:28:08.263Z,2.60
2023-08-09T23:30:36.220Z,2.05
2023-08-09T23:33:06.270Z,1.80
2023-08-09T23:35:34.576Z,2.33
2023-08-09T23:38:02.644Z,2.30
2023-08-09T23:40:30.523Z,2.25
2023-08-09T23:42:58.371Z,2.28
2023-08-09T23:45:26.296Z,2.53
2023-08-09T23:47:54.223Z,2.60
2023-08-09T23:50:24.280Z,2.35
2023-08-09T23:52:52.364Z,2.60
2023-08-09T23:55:20.204Z,2.42
2023-08-09T23:57:48.049Z,2.60
